Time;durP1;ratioP1;P1;durP2;ratioP2;P2;SDS_P1;SDS_P2;PMS_P1;PMS_P2;Temp;Humidity;BMP_temperature;BMP_pressure;BME280_temperature;BME280_humidity;BME280_pressure;Samples;Min_cycle;Max_cycle;Signal;HPM_P1;HPM_P2
2022/07/28 00:02:10;;;;;;;;;;;21.20;65.40;;;;;;4999419;28;19933;-76
2022/07/28 00:04:36;;;;;;;;;;;21.20;65.40;;;;;;5005962;28;19933;-78
2022/07/28 00:07:03;;;;;;;;;;;21.20;65.60;;;;;;5004719;28;19977;-77
2022/07/28 00:09:30;;;;;;;;;;;21.20;65.70;;;;;;4997144;28;19956;-77
2022/07/28 00:11:57;;;;;;;;;;;21.10;65.70;;;;;;4999475;28;19971;-77
2022/07/28 00:14:25;;;;;;;;;;;21.10;65.90;;;;;;5000133;28;19926;-77
2022/07/28 00:16:52;;;;;;;;;;;21.10;66.00;;;;;;5004153;28;19929;-77
2022/07/28 00:19:19;;;;;;;;;;;21.10;66.20;;;;;;5008724;28;20018;-77
2022/07/28 00:21:46;;;;;;;;;;;21.10;67.00;;;;;;5064675;28;19933;-77
2022/07/28 00:24:13;;;;;;;;;;;21.10;66.60;;;;;;4998967;28;19997;-77
2022/07/28 00:26:40;;;;;;;;;;;21.00;66.60;;;;;;4997821;28;19949;-79
2022/07/28 00:29:07;;;;;;;;;;;21.00;66.70;;;;;;5074161;28;19930;-77
2022/07/28 00:31:35;;;;;;;;;;;21.00;66.90;;;;;;5002540;28;19926;-78
2022/07/28 00:34:02;;;;;;;;;;;21.00;67.00;;;;;;4998744;28;19932;-79
2022/07/28 00:36:28;;;;;;;;;;;21.00;67.20;;;;;;5006153;28;21155;-77
2022/07/28 00:38:55;;;;;;;;;;;21.00;67.30;;;;;;5009654;28;20620;-76
2022/07/28 00:41:22;;;;;;;;;;;20.90;67.40;;;;;;5007555;28;19978;-79
2022/07/28 00:43:50;;;;;;;;;;;20.90;66.80;;;;;;5003703;28;20439;-77
2022/07/28 00:46:18;;;;;;;;;;;20.90;67.40;;;;;;5071343;28;20010;-77
2022/07/28 00:48:47;;;;;;;;;;;20.90;67.40;;;;;;5010635;28;19982;-79
2022/07/28 00:51:15;;;;;;;;;;;20.90;67.40;;;;;;5000931;28;19925;-77
2022/07/28 00:53:42;;;;;;;;;;;20.90;67.40;;;;;;5007572;28;19925;-77
2022/07/28 00:56:09;;;;;;;;;;;20.80;67.20;;;;;;5002894;28;19929;-77
2022/07/28 00:58:36;;;;;;;;;;;20.80;67.30;;;;;;5003643;28;19960;-77
2022/07/28 01:01:04;;;;;;;;;;;20.80;67.30;;;;;;5002466;28;19986;-77
2022/07/28 01:03:31;;;;;;;;;;;20.80;67.40;;;;;;5121217;22;19926;-79
2022/07/28 01:06:03;;;;;;;;;;;20.80;67.40;;;;;;4962079;28;19927;-77
2022/07/28 01:08:33;;;;;;;;;;;20.70;67.40;;;;;;4984028;28;20407;-77
2022/07/28 01:11:04;;;;;;;;;;;20.70;67.50;;;;;;4971957;28;21107;-80
2022/07/28 01:13:34;;;;;;;;;;;20.70;67.60;;;;;;4974356;28;19957;-77
2022/07/28 01:16:02;;;;;;;;;;;20.70;67.70;;;;;;4966225;28;19940;-76
2022/07/28 01:18:32;;;;;;;;;;;20.70;67.80;;;;;;4963056;28;20005;-77
2022/07/28 01:21:03;;;;;;;;;;;20.60;67.80;;;;;;4965163;28;19930;-77
2022/07/28 01:23:48;;;;;;;;;;;20.60;67.80;;;;;;4973989;28;20402;-77
2022/07/28 01:26:23;;;;;;;;;;;20.60;68.00;;;;;;4952996;23;20475;-78
2022/07/28 01:28:59;;;;;;;;;;;20.60;68.10;;;;;;5017230;28;19932;-77
2022/07/28 01:31:28;;;;;;;;;;;20.60;68.20;;;;;;4945753;28;20364;-78
2022/07/28 01:33:55;;;;;;;;;;;20.60;68.30;;;;;;4935712;28;20313;-78
2022/07/28 01:36:25;;;;;;;;;;;20.60;68.40;;;;;;5019826;28;19942;-78
2022/07/28 01:38:51;;;;;;;;;;;20.50;68.40;;;;;;4963021;28;19955;-78
2022/07/28 01:41:20;;;;;;;;;;;20.50;68.40;;;;;;4950328;28;19935;-78
2022/07/28 01:43:48;;;;;;;;;;;20.50;68.60;;;;;;4948174;28;19934;-79
2022/07/28 01:46:15;;;;;;;;;;;20.50;68.60;;;;;;4946621;28;19927;-78
2022/07/28 01:48:44;;;;;;;;;;;20.50;68.70;;;;;;4955059;28;19958;-78
2022/07/28 01:51:12;;;;;;;;;;;20.50;68.70;;;;;;4941191;28;20397;-78
2022/07/28 01:53:40;;;;;;;;;;;20.40;68.80;;;;;;4946863;28;19926;-78
2022/07/28 01:56:07;;;;;;;;;;;20.50;69.00;;;;;;4944282;28;19934;-78
2022/07/28 01:58:35;;;;;;;;;;;20.40;68.90;;;;;;4952487;28;19947;-78
2022/07/28 02:01:02;;;;;;;;;;;20.40;69.00;;;;;;4937985;28;19926;-77
2022/07/28 02:03:31;;;;;;;;;;;20.40;69.10;;;;;;4951948;28;19988;-78
2022/07/28 02:06:01;;;;;;;;;;;20.40;69.10;;;;;;4944900;28;19927;-77
2022/07/28 02:08:28;;;;;;;;;;;20.30;69.10;;;;;;4949824;28;19931;-77
2022/07/28 02:13:41;;;;;;;;;;;20.30;69.40;;;;;;4943575;28;19933;-78
2022/07/28 02:16:10;;;;;;;;;;;20.30;69.60;;;;;;4949808;28;19972;-77
2022/07/28 02:18:38;;;;;;;;;;;20.30;69.70;;;;;;5007906;28;19933;-78
2022/07/28 02:21:06;;;;;;;;;;;20.30;69.80;;;;;;4942669;28;20016;-78
2022/07/28 02:23:34;;;;;;;;;;;20.30;69.90;;;;;;4952320;28;19927;-78
2022/07/28 02:26:01;;;;;;;;;;;20.20;70.00;;;;;;4939496;28;19954;-78
2022/07/28 02:28:28;;;;;;;;;;;20.20;70.10;;;;;;4945264;28;19930;-78
2022/07/28 02:30:57;;;;;;;;;;;20.20;70.30;;;;;;4939468;28;20347;-78
2022/07/28 02:33:25;;;;;;;;;;;20.20;70.50;;;;;;4944044;28;19973;-78
2022/07/28 02:35:53;;;;;;;;;;;20.20;70.70;;;;;;4947783;28;19926;-78
2022/07/28 02:38:24;;;;;;;;;;;20.10;70.60;;;;;;4942062;28;20882;-78
2022/07/28 02:40:53;;;;;;;;;;;20.10;70.80;;;;;;4946813;28;19926;-77
2022/07/28 02:43:24;;;;;;;;;;;20.10;70.80;;;;;;4941580;28;20004;-78
2022/07/28 02:45:52;;;;;;;;;;;20.10;70.90;;;;;;5007755;28;19986;-77
2022/07/28 02:48:23;;;;;;;;;;;20.10;70.90;;;;;;4948857;28;19926;-78
2022/07/28 02:50:51;;;;;;;;;;;20.10;70.90;;;;;;4951251;28;19952;-77
2022/07/28 02:53:18;;;;;;;;;;;20.10;71.10;;;;;;4948487;28;20397;-78
2022/07/28 02:55:47;;;;;;;;;;;20.00;71.20;;;;;;5010222;28;20320;-78
2022/07/28 02:58:15;;;;;;;;;;;20.00;71.20;;;;;;4950358;28;20049;-78
2022/07/28 03:00:43;;;;;;;;;;;20.00;71.30;;;;;;4947304;28;19927;-78
2022/07/28 03:03:10;;;;;;;;;;;20.00;71.30;;;;;;4943334;28;20660;-78
2022/07/28 03:05:39;;;;;;;;;;;20.00;71.40;;;;;;5007197;28;19938;-77
2022/07/28 03:08:06;;;;;;;;;;;20.00;71.40;;;;;;4942373;28;19927;-79
2022/07/28 03:10:33;;;;;;;;;;;19.90;71.30;;;;;;4939688;28;19927;-78
2022/07/28 03:13:02;;;;;;;;;;;19.90;71.30;;;;;;4940142;28;20044;-78
2022/07/28 03:15:29;;;;;;;;;;;19.90;71.30;;;;;;4942029;28;20029;-78
2022/07/28 03:17:57;;;;;;;;;;;19.90;71.40;;;;;;4947359;28;19926;-78
2022/07/28 03:20:24;;;;;;;;;;;19.90;71.50;;;;;;4939392;28;19927;-77
2022/07/28 03:22:50;;;;;;;;;;;19.80;71.50;;;;;;4946462;28;19957;-77
2022/07/28 03:25:21;;;;;;;;;;;19.80;71.40;;;;;;4940655;28;19935;-78
2022/07/28 03:27:50;;;;;;;;;;;19.80;71.50;;;;;;4945577;28;20301;-78
2022/07/28 03:30:19;;;;;;;;;;;19.80;71.60;;;;;;4938377;28;19934;-78
2022/07/28 03:32:49;;;;;;;;;;;19.80;71.70;;;;;;4936428;28;20377;-77
2022/07/28 03:35:17;;;;;;;;;;;19.80;71.90;;;;;;4951958;28;19934;-78
2022/07/28 03:37:46;;;;;;;;;;;19.80;72.00;;;;;;4957890;28;20016;-78
2022/07/28 03:40:13;;;;;;;;;;;19.80;72.10;;;;;;5005789;28;19931;-78
2022/07/28 03:42:42;;;;;;;;;;;19.80;72.30;;;;;;4943394;28;19927;-78
2022/07/28 03:45:09;;;;;;;;;;;19.70;72.20;;;;;;4941999;28;19968;-78
2022/07/28 03:47:37;;;;;;;;;;;19.70;72.20;;;;;;5022612;28;20012;-77
2022/07/28 03:50:05;;;;;;;;;;;19.70;72.30;;;;;;4998842;28;21386;-77
2022/07/28 03:52:31;;;;;;;;;;;19.70;72.20;;;;;;4940987;28;20392;-77
2022/07/28 03:54:58;;;;;;;;;;;19.70;72.30;;;;;;4945969;28;20213;-77
2022/07/28 03:57:25;;;;;;;;;;;19.70;72.50;;;;;;4954130;28;19930;-77
2022/07/28 03:59:52;;;;;;;;;;;19.60;72.50;;;;;;4950212;28;19952;-77
2022/07/28 04:02:19;;;;;;;;;;;19.60;72.50;;;;;;4944831;28;20091;-77
2022/07/28 04:04:47;;;;;;;;;;;19.60;72.50;;;;;;5010611;28;19970;-78
2022/07/28 04:07:14;;;;;;;;;;;19.60;72.60;;;;;;4951584;28;19934;-78
2022/07/28 04:09:40;;;;;;;;;;;19.60;72.60;;;;;;4925801;28;19927;-77
2022/07/28 04:12:11;;;;;;;;;;;19.60;72.70;;;;;;4930781;28;20024;-77
2022/07/28 04:14:38;;;;;;;;;;;19.50;73.00;;;;;;4966231;28;19927;-77
2022/07/28 04:17:05;;;;;;;;;;;19.50;73.00;;;;;;4949412;28;20381;-77
2022/07/28 04:19:32;;;;;;;;;;;19.50;73.10;;;;;;4953340;28;19973;-77
2022/07/28 04:22:00;;;;;;;;;;;19.50;73.10;;;;;;4958405;28;19927;-76
2022/07/28 04:24:27;;;;;;;;;;;19.50;73.20;;;;;;4944861;28;19927;-77
2022/07/28 04:26:54;;;;;;;;;;;19.50;73.20;;;;;;4949006;28;20413;-77
2022/07/28 04:29:21;;;;;;;;;;;19.40;73.10;;;;;;4949872;28;19987;-75
2022/07/28 04:31:48;;;;;;;;;;;19.40;73.00;;;;;;4950991;28;20006;-76
2022/07/28 04:34:14;;;;;;;;;;;19.40;73.60;;;;;;4950296;28;20000;-77
2022/07/28 04:36:42;;;;;;;;;;;19.40;72.90;;;;;;4953784;28;20305;-77
2022/07/28 04:39:11;;;;;;;;;;;19.40;72.90;;;;;;5009198;28;20355;-76
2022/07/28 04:41:38;;;;;;;;;;;19.40;73.10;;;;;;4961903;28;19933;-76
2022/07/28 04:44:05;;;;;;;;;;;19.40;73.20;;;;;;4949642;28;20041;-76
2022/07/28 04:46:33;;;;;;;;;;;19.40;73.10;;;;;;4937658;28;19930;-75
2022/07/28 04:49:00;;;;;;;;;;;19.40;73.10;;;;;;5005538;28;19935;-76
2022/07/28 04:51:27;;;;;;;;;;;19.30;73.00;;;;;;5002186;28;19930;-77
2022/07/28 04:53:53;;;;;;;;;;;19.30;73.30;;;;;;4951196;28;19951;-77
2022/07/28 04:56:22;;;;;;;;;;;19.30;74.00;;;;;;4954835;28;19970;-77
2022/07/28 04:58:48;;;;;;;;;;;19.30;73.80;;;;;;4972660;28;20002;-77
2022/07/28 05:01:15;;;;;;;;;;;19.30;73.70;;;;;;5021034;28;19934;-77
2022/07/28 05:03:42;;;;;;;;;;;19.30;73.90;;;;;;4961034;28;20110;-77
2022/07/28 05:06:09;;;;;;;;;;;19.30;74.30;;;;;;4956592;28;19934;-77
2022/07/28 05:08:35;;;;;;;;;;;19.20;73.70;;;;;;4959207;28;19985;-76
2022/07/28 05:11:02;;;;;;;;;;;19.20;73.70;;;;;;5010067;28;19927;-77
2022/07/28 05:13:30;;;;;;;;;;;19.20;73.70;;;;;;4952581;28;20312;-76
2022/07/28 05:15:57;;;;;;;;;;;19.20;73.90;;;;;;4966590;28;19931;-77
2022/07/28 05:18:24;;;;;;;;;;;19.20;74.00;;;;;;5013230;28;19934;-76
2022/07/28 05:20:51;;;;;;;;;;;19.20;74.10;;;;;;4957066;28;19930;-76
2022/07/28 05:23:18;;;;;;;;;;;19.20;74.10;;;;;;4951831;28;20017;-76
2022/07/28 05:25:45;;;;;;;;;;;19.20;74.20;;;;;;4955905;28;20567;-77
2022/07/28 05:28:11;;;;;;;;;;;19.20;74.30;;;;;;4950731;28;19927;-77
2022/07/28 05:30:39;;;;;;;;;;;19.20;74.10;;;;;;5024972;28;19958;-77
2022/07/28 05:33:06;;;;;;;;;;;19.20;74.20;;;;;;4955781;28;19927;-78
2022/07/28 05:35:33;;;;;;;;;;;19.10;73.80;;;;;;4964144;28;19934;-77
2022/07/28 05:38:00;;;;;;;;;;;19.10;73.80;;;;;;5019230;28;19954;-77
2022/07/28 05:40:27;;;;;;;;;;;19.10;74.00;;;;;;5019266;28;20296;-78
2022/07/28 05:42:53;;;;;;;;;;;19.10;74.00;;;;;;4951291;28;20026;-77
2022/07/28 05:45:20;;;;;;;;;;;19.10;74.80;;;;;;4988803;28;20002;-77
2022/07/28 05:47:49;;;;;;;;;;;19.00;75.30;;;;;;4983783;28;19925;-78
2022/07/28 05:50:17;;;;;;;;;;;19.00;75.80;;;;;;4952328;28;19973;-77
2022/07/28 05:52:43;;;;;;;;;;;19.00;75.70;;;;;;4961993;28;19937;-77
2022/07/28 05:55:10;;;;;;;;;;;19.10;76.30;;;;;;4958925;28;19926;-77
2022/07/28 05:57:37;;;;;;;;;;;19.10;76.70;;;;;;5033509;28;19988;-77
2022/07/28 06:00:06;;;;;;;;;;;19.00;76.40;;;;;;4955488;28;19936;-77
2022/07/28 06:02:38;;;;;;;;;;;19.00;77.00;;;;;;4948247;28;19930;-77
2022/07/28 06:05:07;;;;;;;;;;;19.10;77.20;;;;;;4960266;28;19980;-77
2022/07/28 06:07:33;;;;;;;;;;;19.10;77.40;;;;;;4957277;28;19960;-77
2022/07/28 06:10:00;;;;;;;;;;;19.10;77.40;;;;;;4965332;28;19940;-76
2022/07/28 06:12:27;;;;;;;;;;;19.10;77.60;;;;;;4962534;28;19947;-77
2022/07/28 06:14:54;;;;;;;;;;;19.10;77.50;;;;;;4974045;28;19937;-77
2022/07/28 06:17:21;;;;;;;;;;;19.10;77.60;;;;;;4958494;28;19961;-77
2022/07/28 06:19:48;;;;;;;;;;;19.20;77.70;;;;;;4962472;28;19930;-77
2022/07/28 06:22:16;;;;;;;;;;;19.10;77.70;;;;;;5017979;28;19926;-77
2022/07/28 06:24:43;;;;;;;;;;;19.20;77.60;;;;;;4965893;28;19930;-76
2022/07/28 06:27:10;;;;;;;;;;;19.20;77.90;;;;;;4955904;28;19926;-77
2022/07/28 06:29:36;;;;;;;;;;;19.20;77.80;;;;;;4962031;28;20013;-76
2022/07/28 06:32:04;;;;;;;;;;;19.30;78.10;;;;;;4956456;28;20026;-76
2022/07/28 06:34:31;;;;;;;;;;;19.30;78.40;;;;;;4956914;28;19935;-77
2022/07/28 06:36:58;;;;;;;;;;;19.30;78.50;;;;;;4969431;28;19926;-78
2022/07/28 06:39:26;;;;;;;;;;;19.30;78.40;;;;;;4953607;28;19935;-77
2022/07/28 06:41:53;;;;;;;;;;;19.30;78.40;;;;;;4953097;28;19931;-77
2022/07/28 06:44:19;;;;;;;;;;;19.30;78.50;;;;;;4958540;28;19926;-77
2022/07/28 06:46:46;;;;;;;;;;;19.40;78.70;;;;;;4958697;28;19930;-77
2022/07/28 06:49:13;;;;;;;;;;;19.40;78.80;;;;;;4960646;28;19937;-77
2022/07/28 06:51:40;;;;;;;;;;;19.40;78.80;;;;;;4950986;28;19960;-77
2022/07/28 06:54:07;;;;;;;;;;;19.40;78.90;;;;;;4956592;28;19957;-77
2022/07/28 06:56:35;;;;;;;;;;;19.40;79.00;;;;;;4962983;28;19930;-77
2022/07/28 06:59:04;;;;;;;;;;;19.40;78.80;;;;;;4952336;28;19931;-76
2022/07/28 07:01:30;;;;;;;;;;;19.50;79.00;;;;;;4968141;28;19934;-77
2022/07/28 07:03:57;;;;;;;;;;;19.50;79.10;;;;;;4947169;28;19991;-76
2022/07/28 07:06:24;;;;;;;;;;;19.50;79.20;;;;;;4955975;28;19931;-77
2022/07/28 07:08:51;;;;;;;;;;;19.50;79.30;;;;;;4964013;28;20589;-77
2022/07/28 07:11:18;;;;;;;;;;;19.50;79.40;;;;;;4953594;28;20025;-76
2022/07/28 07:13:48;;;;;;;;;;;19.50;79.40;;;;;;4965193;28;19926;-77
2022/07/28 07:16:15;;;;;;;;;;;19.60;79.60;;;;;;4978232;28;19942;-77
2022/07/28 07:18:42;;;;;;;;;;;19.60;79.70;;;;;;4957489;28;19938;-77
2022/07/28 07:21:09;;;;;;;;;;;19.60;79.60;;;;;;4946310;28;20381;-77
2022/07/28 07:23:36;;;;;;;;;;;19.60;79.60;;;;;;4959061;28;19927;-77
2022/07/28 07:26:03;;;;;;;;;;;19.70;80.10;;;;;;5009679;28;19938;-78
2022/07/28 07:28:30;;;;;;;;;;;19.70;80.20;;;;;;5011498;23;19931;-75
2022/07/28 07:30:58;;;;;;;;;;;19.70;80.30;;;;;;5058928;28;20039;-75
2022/07/28 07:33:25;;;;;;;;;;;19.70;80.80;;;;;;5056369;28;19924;-75
2022/07/28 07:35:51;;;;;;;;;;;19.70;80.40;;;;;;5068943;28;19924;-76
2022/07/28 07:38:18;;;;;;;;;;;19.70;80.60;;;;;;5062606;28;19928;-75
2022/07/28 07:40:45;;;;;;;;;;;19.80;80.80;;;;;;5046943;28;19928;-77
2022/07/28 07:43:12;;;;;;;;;;;19.80;80.40;;;;;;5067451;28;20032;-75
2022/07/28 07:45:40;;;;;;;;;;;19.80;80.40;;;;;;5050631;28;19924;-75
2022/07/28 07:48:08;;;;;;;;;;;19.80;80.50;;;;;;5047111;28;19924;-76
2022/07/28 07:50:35;;;;;;;;;;;19.80;80.50;;;;;;5057400;28;19924;-76
2022/07/28 07:53:02;;;;;;;;;;;19.80;80.40;;;;;;5052854;28;20684;-75
2022/07/28 07:55:29;;;;;;;;;;;19.80;80.50;;;;;;5062468;28;20373;-73
2022/07/28 07:57:56;;;;;;;;;;;19.90;80.80;;;;;;5059711;28;20415;-76
2022/07/28 08:00:23;;;;;;;;;;;19.90;80.90;;;;;;5051971;28;19928;-76
2022/07/28 08:02:50;;;;;;;;;;;19.90;80.90;;;;;;5065226;28;20349;-76
2022/07/28 08:05:18;;;;;;;;;;;19.90;81.10;;;;;;5066654;28;20452;-75
2022/07/28 08:07:45;;;;;;;;;;;20.00;81.40;;;;;;5060943;28;19978;-76
2022/07/28 08:10:12;;;;;;;;;;;20.00;81.20;;;;;;5046151;28;20401;-75
2022/07/28 08:12:39;;;;;;;;;;;20.00;81.30;;;;;;5067691;28;19924;-75
2022/07/28 08:15:06;;;;;;;;;;;19.90;81.20;;;;;;5066965;28;19924;-74
2022/07/28 08:17:33;;;;;;;;;;;20.00;81.50;;;;;;5058114;28;19939;-75
2022/07/28 08:20:01;;;;;;;;;;;20.00;81.50;;;;;;5068246;28;20030;-75
2022/07/28 08:22:29;;;;;;;;;;;20.00;81.50;;;;;;5063304;28;19924;-75
2022/07/28 08:24:56;;;;;;;;;;;20.00;81.50;;;;;;5059950;28;20019;-75
2022/07/28 08:27:23;;;;;;;;;;;20.10;81.80;;;;;;5063279;28;20152;-75
2022/07/28 08:29:49;;;;;;;;;;;20.00;81.60;;;;;;5067947;28;19971;-76
2022/07/28 08:32:16;;;;;;;;;;;20.10;81.70;;;;;;5070776;28;19924;-76
2022/07/28 08:34:43;;;;;;;;;;;20.10;81.70;;;;;;5066599;28;19932;-75
2022/07/28 08:37:10;;;;;;;;;;;20.10;81.70;;;;;;5065553;28;20337;-75
2022/07/28 08:39:38;;;;;;;;;;;20.10;81.70;;;;;;5061417;28;19933;-74
2022/07/28 08:42:05;;;;;;;;;;;20.10;81.90;;;;;;5053620;28;19990;-76
2022/07/28 08:44:35;;;;;;;;;;;20.10;81.80;;;;;;5059210;28;19963;-75
2022/07/28 08:47:02;;;;;;;;;;;20.20;81.90;;;;;;5058555;28;19960;-76
2022/07/28 08:49:30;;;;;;;;;;;20.10;81.90;;;;;;5053109;28;19976;-75
2022/07/28 08:51:58;;;;;;;;;;;20.20;81.90;;;;;;5059039;28;19924;-75
2022/07/28 08:54:27;;;;;;;;;;;20.20;82.00;;;;;;5054897;28;19932;-75
2022/07/28 08:56:57;;;;;;;;;;;20.20;81.90;;;;;;5067524;28;20021;-75
2022/07/28 08:59:24;;;;;;;;;;;20.20;81.90;;;;;;5058297;28;19929;-75
2022/07/28 09:01:51;;;;;;;;;;;20.20;82.00;;;;;;5071372;28;19925;-76
2022/07/28 09:04:19;;;;;;;;;;;20.30;82.00;;;;;;5054558;28;19932;-76
2022/07/28 09:06:46;;;;;;;;;;;20.30;81.90;;;;;;5053669;28;19933;-77
2022/07/28 09:09:13;;;;;;;;;;;20.30;81.90;;;;;;5067265;28;19928;-76
2022/07/28 09:11:40;;;;;;;;;;;20.30;81.90;;;;;;5070646;28;20041;-76
2022/07/28 09:14:11;;;;;;;;;;;20.30;82.00;;;;;;5072002;28;19932;-76
2022/07/28 09:16:37;;;;;;;;;;;20.30;82.00;;;;;;5061593;28;19925;-76
2022/07/28 09:19:04;;;;;;;;;;;20.30;81.90;;;;;;5069381;28;19932;-76
2022/07/28 09:21:31;;;;;;;;;;;20.40;82.00;;;;;;5072649;28;20459;-75
2022/07/28 09:23:59;;;;;;;;;;;20.40;82.20;;;;;;5057541;28;19947;-76
2022/07/28 09:26:26;;;;;;;;;;;20.40;82.20;;;;;;5058836;28;19982;-75
2022/07/28 09:28:53;;;;;;;;;;;20.50;83.60;;;;;;5048938;28;19939;-76
2022/07/28 09:31:22;;;;;;;;;;;20.60;83.60;;;;;;5064602;28;19931;-77
2022/07/28 09:33:53;;;;;;;;;;;20.70;83.10;;;;;;5062659;28;19977;-77
2022/07/28 09:36:20;;;;;;;;;;;20.60;82.80;;;;;;5066279;28;19924;-76
2022/07/28 09:38:47;;;;;;;;;;;20.60;82.80;;;;;;5071477;28;19924;-76
2022/07/28 09:41:17;;;;;;;;;;;20.60;82.80;;;;;;5066016;28;19939;-75
2022/07/28 09:43:45;;;;;;;;;;;20.60;82.80;;;;;;5069554;28;19925;-76
2022/07/28 09:46:13;;;;;;;;;;;20.60;82.90;;;;;;5051083;28;19978;-76
2022/07/28 09:48:51;;;;;;;;;;;20.60;82.70;;;;;;5066091;28;19978;-75
2022/07/28 09:51:19;;;;;;;;;;;20.60;82.70;;;;;;5072970;28;19928;-76
2022/07/28 09:53:46;;;;;;;;;;;20.60;82.80;;;;;;5075867;28;19928;-76
2022/07/28 09:56:13;;;;;;;;;;;20.60;82.60;;;;;;5054323;28;20027;-75
2022/07/28 09:58:40;;;;;;;;;;;20.60;82.70;;;;;;5069347;28;20010;-76
2022/07/28 10:01:08;;;;;;;;;;;20.70;82.90;;;;;;5072729;28;19972;-76
2022/07/28 10:03:35;;;;;;;;;;;20.60;82.60;;;;;;5066357;28;20379;-76
2022/07/28 10:06:08;;;;;;;;;;;20.70;82.90;;;;;;5066225;28;19935;-76
2022/07/28 10:08:39;;;;;;;;;;;20.70;83.00;;;;;;5069103;28;19971;-76
2022/07/28 10:11:06;;;;;;;;;;;20.80;83.00;;;;;;5062828;28;19996;-76
2022/07/28 10:13:34;;;;;;;;;;;20.70;82.80;;;;;;5068371;28;19935;-76
2022/07/28 10:18:41;;;;;;;;;;;20.80;82.70;;;;;;5068382;23;20446;-76
2022/07/28 10:21:12;;;;;;;;;;;20.80;82.70;;;;;;5065975;28;19924;-76
2022/07/28 10:23:39;;;;;;;;;;;20.80;83.00;;;;;;5087245;28;19924;-76
2022/07/28 10:26:06;;;;;;;;;;;20.80;83.00;;;;;;5083643;28;20455;-76
2022/07/28 10:28:34;;;;;;;;;;;20.80;82.90;;;;;;5086272;28;19932;-77
2022/07/28 10:31:01;;;;;;;;;;;20.90;83.20;;;;;;5064166;28;19924;-76
2022/07/28 10:33:30;;;;;;;;;;;20.80;82.90;;;;;;5064862;28;19931;-76
2022/07/28 10:35:58;;;;;;;;;;;20.90;82.90;;;;;;5079722;28;19931;-76
2022/07/28 10:38:28;;;;;;;;;;;20.90;83.00;;;;;;5084969;28;20427;-76
2022/07/28 10:40:55;;;;;;;;;;;20.90;83.00;;;;;;5078888;28;19955;-77
2022/07/28 10:43:23;;;;;;;;;;;20.90;82.90;;;;;;5079163;28;19946;-76
2022/07/28 10:45:50;;;;;;;;;;;21.00;83.00;;;;;;5084664;28;20471;-77
2022/07/28 10:48:17;;;;;;;;;;;21.00;82.80;;;;;;5078314;28;19927;-78
2022/07/28 10:50:44;;;;;;;;;;;21.00;82.90;;;;;;5078722;28;19954;-76
2022/07/28 10:53:11;;;;;;;;;;;21.00;82.90;;;;;;5079034;28;20052;-75
2022/07/28 10:55:46;;;;;;;;;;;21.00;82.80;;;;;;5080585;28;20406;-76
2022/07/28 10:58:14;;;;;;;;;;;21.10;82.70;;;;;;5073320;28;20382;-77
2022/07/28 11:00:46;;;;;;;;;;;21.10;82.80;;;;;;5083623;28;19928;-77
2022/07/28 11:03:35;;;;;;;;;;;21.10;82.70;;;;;;5077901;28;20130;-76
2022/07/28 11:06:17;;;;;;;;;;;21.20;82.90;;;;;;5077884;28;19928;-75
2022/07/28 11:08:43;;;;;;;;;;;21.20;82.80;;;;;;5068913;28;20344;-76
2022/07/28 11:11:12;;;;;;;;;;;21.20;82.60;;;;;;5079298;28;20416;-76
2022/07/28 11:13:38;;;;;;;;;;;21.30;82.60;;;;;;5084032;28;20374;-77
2022/07/28 11:16:34;;;;;;;;;;;21.30;82.40;;;;;;5082394;28;20425;-77
2022/07/28 11:19:05;;;;;;;;;;;21.30;82.30;;;;;;5072438;28;20508;-76
2022/07/28 11:21:32;;;;;;;;;;;21.30;82.30;;;;;;5073612;28;20007;-76
2022/07/28 11:23:59;;;;;;;;;;;21.30;82.20;;;;;;5060683;28;19955;-76
2022/07/28 11:26:33;;;;;;;;;;;21.40;82.20;;;;;;5077163;28;19924;-77
2022/07/28 11:29:16;;;;;;;;;;;21.40;82.00;;;;;;5075417;28;19924;-76
2022/07/28 11:31:55;;;;;;;;;;;21.40;82.00;;;;;;5077664;28;20014;-75
2022/07/28 11:34:23;;;;;;;;;;;21.50;82.00;;;;;;5078787;28;20368;-76
2022/07/28 11:37:03;;;;;;;;;;;21.50;81.70;;;;;;5072905;28;19932;-77
2022/07/28 11:39:31;;;;;;;;;;;21.50;81.60;;;;;;5080395;28;20015;-77
2022/07/28 11:41:59;;;;;;;;;;;21.50;81.30;;;;;;5079042;28;20446;-76
2022/07/28 11:44:26;;;;;;;;;;;21.60;81.10;;;;;;5075234;28;20454;-76
2022/07/28 11:46:54;;;;;;;;;;;21.60;81.00;;;;;;5065836;28;20340;-76
2022/07/28 11:49:29;;;;;;;;;;;21.60;81.00;;;;;;5083659;28;20243;-77
2022/07/28 11:52:16;;;;;;;;;;;21.70;81.10;;;;;;5081542;28;20291;-77
2022/07/28 11:54:43;;;;;;;;;;;21.70;81.10;;;;;;5074196;28;20449;-76
2022/07/28 11:57:11;;;;;;;;;;;21.70;80.90;;;;;;5077743;28;20027;-77
2022/07/28 11:59:45;;;;;;;;;;;21.80;80.90;;;;;;5079658;28;19985;-78
2022/07/28 12:02:17;;;;;;;;;;;21.80;80.70;;;;;;5071133;28;20031;-77
2022/07/28 12:04:43;;;;;;;;;;;21.80;80.50;;;;;;5081831;28;19924;-77
2022/07/28 12:07:11;;;;;;;;;;;21.80;80.20;;;;;;5081284;28;19936;-77
2022/07/28 12:09:38;;;;;;;;;;;21.90;80.20;;;;;;5064395;28;20482;-76
2022/07/28 12:12:06;;;;;;;;;;;21.90;80.10;;;;;;5059773;28;19925;-76
2022/07/28 12:14:39;;;;;;;;;;;22.00;80.10;;;;;;5068225;28;20016;-77
2022/07/28 12:17:06;;;;;;;;;;;22.00;80.10;;;;;;5081140;28;19928;-77
2022/07/28 12:19:39;;;;;;;;;;;22.00;80.00;;;;;;5066046;28;19936;-75
2022/07/28 12:22:09;;;;;;;;;;;22.10;80.20;;;;;;5059655;28;19981;-77
2022/07/28 12:24:37;;;;;;;;;;;22.10;80.20;;;;;;5083416;28;19924;-77
2022/07/28 12:27:04;;;;;;;;;;;22.20;80.20;;;;;;5081132;28;20348;-77
2022/07/28 12:29:31;;;;;;;;;;;22.20;80.00;;;;;;5078977;28;20283;-77
2022/07/28 12:32:00;;;;;;;;;;;22.20;80.10;;;;;;5060707;28;20258;-76
2022/07/28 12:34:28;;;;;;;;;;;22.30;80.10;;;;;;5081789;28;19948;-76
2022/07/28 12:36:55;;;;;;;;;;;22.30;80.00;;;;;;5082393;28;20382;-77
2022/07/28 12:39:24;;;;;;;;;;;22.40;80.00;;;;;;5084065;28;19932;-77
2022/07/28 12:41:59;;;;;;;;;;;22.40;79.60;;;;;;5080126;28;19925;-77
2022/07/28 12:44:31;;;;;;;;;;;22.40;79.50;;;;;;5062111;28;19929;-77
2022/07/28 12:47:00;;;;;;;;;;;22.50;79.60;;;;;;5079262;28;19985;-77
2022/07/28 12:49:27;;;;;;;;;;;22.50;79.50;;;;;;5085259;28;19923;-77
2022/07/28 12:51:54;;;;;;;;;;;22.60;79.30;;;;;;5079555;28;19933;-78
2022/07/28 12:54:33;;;;;;;;;;;22.60;79.20;;;;;;5081402;28;19959;-75
2022/07/28 12:57:00;;;;;;;;;;;22.70;79.00;;;;;;5075933;28;20652;-78
2022/07/28 12:59:31;;;;;;;;;;;22.70;79.10;;;;;;5085584;28;19927;-77
2022/07/28 13:02:01;;;;;;;;;;;22.80;79.20;;;;;;5079635;28;19934;-77
2022/07/28 13:04:42;;;;;;;;;;;22.80;79.10;;;;;;5081355;28;19924;-77
2022/07/28 13:07:09;;;;;;;;;;;22.80;78.60;;;;;;5078002;28;19924;-76
2022/07/28 13:09:38;;;;;;;;;;;22.90;78.90;;;;;;5068489;28;20019;-77
2022/07/28 13:12:13;;;;;;;;;;;22.90;79.20;;;;;;5081758;28;19924;-77
2022/07/28 13:14:40;;;;;;;;;;;23.00;79.20;;;;;;5081977;28;19924;-76
2022/07/28 13:17:08;;;;;;;;;;;23.00;79.00;;;;;;5083917;28;20007;-76
2022/07/28 13:19:35;;;;;;;;;;;23.10;79.50;;;;;;5085408;28;19932;-76
2022/07/28 13:22:02;;;;;;;;;;;23.10;79.30;;;;;;5079780;28;19936;-76
2022/07/28 13:24:30;;;;;;;;;;;23.20;78.80;;;;;;5080862;28;19970;-77
2022/07/28 13:26:57;;;;;;;;;;;23.20;78.80;;;;;;5079112;28;19947;-76
2022/07/28 13:29:24;;;;;;;;;;;23.30;78.90;;;;;;5068828;28;20429;-77
2022/07/28 13:31:53;;;;;;;;;;;23.30;78.90;;;;;;5082896;28;19950;-76
2022/07/28 13:34:23;;;;;;;;;;;23.30;78.80;;;;;;5076568;28;19954;-77
2022/07/28 13:36:51;;;;;;;;;;;23.40;78.40;;;;;;5080051;22;20388;-80
2022/07/28 13:39:18;;;;;;;;;;;23.50;78.30;;;;;;5001253;28;19968;-80
2022/07/28 13:41:44;;;;;;;;;;;23.50;78.30;;;;;;5003221;28;19989;-80
2022/07/28 13:44:11;;;;;;;;;;;23.60;78.40;;;;;;4985968;28;19974;-80
2022/07/28 13:46:39;;;;;;;;;;;23.60;78.20;;;;;;4978889;28;19957;-81
2022/07/28 13:49:05;;;;;;;;;;;23.60;78.10;;;;;;4989430;28;20403;-81
2022/07/28 13:51:35;;;;;;;;;;;23.70;78.20;;;;;;4983128;28;19938;-81
2022/07/28 13:54:01;;;;;;;;;;;23.80;78.20;;;;;;4984745;28;19952;-81
2022/07/28 13:56:28;;;;;;;;;;;23.80;78.10;;;;;;4978032;28;20452;-80
2022/07/28 13:58:55;;;;;;;;;;;23.80;78.00;;;;;;4963418;28;19989;-80
2022/07/28 14:01:22;;;;;;;;;;;23.90;78.00;;;;;;4974931;28;19933;-80
2022/07/28 14:03:49;;;;;;;;;;;23.90;77.50;;;;;;4980453;28;19933;-80
2022/07/28 14:06:16;;;;;;;;;;;24.00;77.40;;;;;;4976203;28;20400;-80
2022/07/28 14:08:44;;;;;;;;;;;24.00;77.40;;;;;;4987262;28;20303;-80
2022/07/28 14:11:11;;;;;;;;;;;24.10;77.50;;;;;;4980594;28;19933;-80
2022/07/28 14:13:38;;;;;;;;;;;24.10;77.10;;;;;;4987256;28;19930;-81
2022/07/28 14:16:05;;;;;;;;;;;24.20;76.50;;;;;;4984438;28;20420;-80
2022/07/28 14:18:32;;;;;;;;;;;24.20;76.30;;;;;;4986868;28;19932;-81
2022/07/28 14:20:59;;;;;;;;;;;24.20;76.50;;;;;;4989790;28;19964;-80
2022/07/28 14:23:26;;;;;;;;;;;24.30;76.20;;;;;;4986138;28;19934;-80
2022/07/28 14:25:54;;;;;;;;;;;24.30;76.30;;;;;;4981244;28;19960;-82
2022/07/28 14:28:21;;;;;;;;;;;24.40;76.40;;;;;;4974748;28;19927;-83